Portada
METAR-TAF:

METAR-TAF

Aeroports :

Batna, Algèria

latitud: 35-33N, longitud: 006-11E, altitud: 1052 m

Observació

L'informe es va fer fa 21 minuts, a les 09:00 UTC
Vent 2 kt del Nord-Est
Temperatura 14°C
Humitat 36%
Pressió 1018 hPa
Visibilitat 10 km o més
Escasses núvols a una alçada de 2600 ft
Núvols disperses a una alçada de 20000 ft

METAR: DABT 260900Z 04002KT 9999 FEW026 SCT200 14/M01 Q1018

Hora: 10:21 (09:21 UTC)

Pronòstic

L'informe es va fer fa 4 hores i 21 minuts, a les 05:00 UTC
Pronòstic vàlid del 26 a les 06 UTC al 27 a les 06 UTC
Vent 8 kt del Oest/Nord-Oest
Visibilitat 10 km o més
Escasses núvols a una alçada de 2600 ft
Núvols disperses a una alçada de 3300 ft
Evolucionant progressivament
l' 26 a les 08 UTC al 26 a les 10 UTC
Vent 14 kt del Nord
Evolucionant progressivament
l' 26 a les 18 UTC al 26 a les 20 UTC
Vent 8 kt del Sud-Oest

TAF: DABT 260500Z 2606/2706 29008KT 9999 FEW026 SCT033 BECMG 2608/2610 36014KT BECMG 2618/2620 23008KT

Observacions i pronòstics meteorològics de més de 4000 aeroports (METAR i TAF).

Les estacions disponibles són els punts grocs i vermells al mapa.

Posi el ratolí al punt desitjat per veure el nom de l'estació.

Feu clic per veure les observacions i els pronòstics meteorològics.

Per canviar el mapa: feu clic els botons verds amb una creu de color negre per apropar; al botó verd amb un guió per allunyar la imatge; o en les fletxes verdes per a mapes adjacents.


METAR-TAF: